Time;durP1;ratioP1;P1;durP2;ratioP2;P2;SDS_P1;SDS_P2;PMS_P1;PMS_P2;Temp;Humidity;BMP_temperature;BMP_pressure;BME280_temperature;BME280_humidity;BME280_pressure;Samples;Min_cycle;Max_cycle;Signal;HPM_P1;HPM_P2
2022/05/07 00:01:54;;;;;;;;;;;;;;;15.32;74.44;101219.59;5054239;28;19916;-82
2022/05/07 00:04:38;;;;;;;;;;;;;;;15.35;74.27;101214.25;5045642;28;19913;-81
2022/05/07 00:07:23;;;;;;;;;;;;;;;15.34;74.54;101217.31;5032858;28;19928;-81
2022/05/07 00:10:09;;;;;;;;;;;;;;;15.29;74.59;101212.84;5034979;28;19913;-81
2022/05/07 00:12:53;;;;;;;;;;;;;;;15.28;74.48;101207.72;5044495;28;19913;-82
2022/05/07 00:15:38;;;;;;;;;;;;;;;15.25;74.55;101203.69;5052501;28;19916;-81
2022/05/07 00:18:22;;;;;;;;;;;;;;;15.31;74.26;101209.78;5052635;28;19921;-81
2022/05/07 00:21:08;;;;;;;;;;;;;;;15.26;73.99;101199.81;5053320;28;19912;-82
2022/05/07 00:23:52;;;;;;;;;;;;;;;15.30;73.65;101200.75;5044689;28;19913;-81
2022/05/07 00:26:37;;;;;;;;;;;;;;;15.32;73.42;101203.16;5037626;28;19913;-81
2022/05/07 00:29:21;;;;;;;;;;;;;;;15.14;74.51;101196.19;5032066;28;19913;-79
2022/05/07 00:32:06;;;;;;;;;;;;;;;15.07;74.74;101185.78;5031837;28;19912;-79
2022/05/07 00:34:51;;;;;;;;;;;;;;;14.99;75.05;101192.13;5034235;28;20289;-81
2022/05/07 00:37:35;;;;;;;;;;;;;;;15.02;75.22;101191.47;5053453;28;19912;-80
2022/05/07 00:40:19;;;;;;;;;;;;;;;15.10;74.79;101181.56;5046608;28;20293;-80
2022/05/07 00:43:04;;;;;;;;;;;;;;;15.14;74.35;101186.03;5067856;28;19913;-80
2022/05/07 00:45:49;;;;;;;;;;;;;;;15.10;74.09;101174.16;5046764;28;19913;-80
2022/05/07 00:48:33;;;;;;;;;;;;;;;15.09;74.58;101172.53;5035619;28;19913;-81
2022/05/07 00:51:34;;;;;;;;;;;;;;;15.07;74.58;101168.56;5040115;28;19917;-79
2022/05/07 00:54:19;;;;;;;;;;;;;;;15.04;75.32;101170.00;5036542;28;19921;-80
2022/05/07 00:57:04;;;;;;;;;;;;;;;15.08;74.75;101170.16;5049574;28;19913;-80
2022/05/07 00:59:48;;;;;;;;;;;;;;;15.06;74.26;101167.75;5035938;28;19913;-82
2022/05/07 01:02:33;;;;;;;;;;;;;;;15.05;74.60;101170.81;5050350;28;19913;-81
2022/05/07 01:05:18;;;;;;;;;;;;;;;15.10;74.01;101168.69;5073375;28;19916;-81
2022/05/07 01:08:03;;;;;;;;;;;;;;;15.13;73.61;101173.50;5049061;28;20320;-82
2022/05/07 01:10:49;;;;;;;;;;;;;;;15.13;73.85;101165.28;5057778;28;19912;-80
2022/05/07 01:13:37;;;;;;;;;;;;;;;15.15;73.65;101171.22;5075553;28;19917;-80
2022/05/07 01:16:22;;;;;;;;;;;;;;;15.05;74.04;101160.66;5072273;28;19917;-79
2022/05/07 01:19:07;;;;;;;;;;;;;;;15.00;74.63;101163.59;5055611;28;19913;-79
2022/05/07 01:21:52;;;;;;;;;;;;;;;14.96;74.66;101157.19;5054985;28;19913;-79
2022/05/07 01:24:37;;;;;;;;;;;;;;;14.95;74.58;101152.84;5059424;28;19912;-81
2022/05/07 01:27:22;;;;;;;;;;;;;;;14.89;74.67;101151.44;5042849;28;19935;-80
2022/05/07 01:30:07;;;;;;;;;;;;;;;14.92;74.83;101150.78;5054739;28;19913;-81
2022/05/07 01:32:54;;;;;;;;;;;;;;;14.93;74.46;101152.41;5060060;28;19917;-79
2022/05/07 01:35:39;;;;;;;;;;;;;;;14.84;74.16;101148.91;5041249;28;20376;-79
2022/05/07 01:38:24;;;;;;;;;;;;;;;14.89;74.27;101151.44;5043663;28;20373;-82
2022/05/07 01:41:09;;;;;;;;;;;;;;;14.89;74.05;101145.97;5057487;28;20309;-79
2022/05/07 01:43:56;;;;;;;;;;;;;;;14.89;74.39;101146.75;5062718;28;19913;-81
2022/05/07 01:49:49;;;;;;;;;;;;;;;14.89;74.03;101145.97;5059247;28;19912;-80
2022/05/07 01:52:34;;;;;;;;;;;;;;;14.91;74.13;101138.22;5054941;28;19913;-81
2022/05/07 01:55:19;;;;;;;;;;;;;;;14.87;74.15;101143.56;5056652;28;19917;-79
2022/05/07 01:58:07;;;;;;;;;;;;;;;14.90;74.35;101147.56;5045929;28;19913;-77
2022/05/07 02:00:52;;;;;;;;;;;;;;;14.90;74.28;101145.63;5035131;28;19913;-81
2022/05/07 02:03:38;;;;;;;;;;;;;;;14.88;73.96;101147.13;5041512;28;19920;-81
2022/05/07 02:06:22;;;;;;;;;;;;;;;14.91;73.57;101143.69;5052137;28;19913;-79
2022/05/07 02:09:07;;;;;;;;;;;;;;;14.86;73.80;101144.69;5053801;28;19913;-80
2022/05/07 02:11:53;;;;;;;;;;;;;;;14.88;73.89;101144.38;5037255;28;20397;-79
2022/05/07 02:14:38;;;;;;;;;;;;;;;14.90;74.00;101147.56;5039504;28;19921;-79
2022/05/07 02:17:24;;;;;;;;;;;;;;;14.88;74.24;101145.16;5047723;28;19912;-79
2022/05/07 02:20:08;;;;;;;;;;;;;;;14.89;73.94;101143.22;5055201;28;19913;-79
2022/05/07 02:22:57;;;;;;;;;;;;;;;14.86;74.18;101146.63;5059091;28;19913;-78
2022/05/07 02:25:41;;;;;;;;;;;;;;;14.89;73.82;101149.50;5053856;28;19912;-79
2022/05/07 02:28:27;;;;;;;;;;;;;;;14.89;74.06;101143.22;5051605;28;20305;-80
2022/05/07 02:31:12;;;;;;;;;;;;;;;14.84;73.90;101144.22;5042503;28;19920;-81
2022/05/07 02:33:57;;;;;;;;;;;;;;;14.84;74.44;101143.41;5046553;28;19913;-80
2022/05/07 02:36:42;;;;;;;;;;;;;;;14.84;74.83;101137.94;5054999;28;19916;-81
2022/05/07 02:39:28;;;;;;;;;;;;;;;14.81;74.83;101136.69;5052670;28;19912;-80
2022/05/07 02:45:17;;;;;;;;;;;;;;;14.84;74.63;101135.19;5053486;28;20328;-80
2022/05/07 02:48:05;;;;;;;;;;;;;;;14.80;74.67;101131.53;5051330;28;19913;-79
2022/05/07 02:50:51;;;;;;;;;;;;;;;14.80;74.78;101131.53;5034434;28;19921;-80
2022/05/07 02:53:36;;;;;;;;;;;;;;;14.80;74.53;101131.53;5059358;28;20389;-80
2022/05/07 02:56:20;;;;;;;;;;;;;;;14.84;74.25;101127.00;5058731;28;20380;-81
2022/05/07 02:59:06;;;;;;;;;;;;;;;14.87;74.40;101129.06;5086497;22;19920;-79
2022/05/07 03:01:52;;;;;;;;;;;;;;;14.77;74.33;101127.53;5077130;28;19917;-79
2022/05/07 03:04:38;;;;;;;;;;;;;;;14.74;74.20;101122.72;5075718;28;19928;-79
2022/05/07 03:07:24;;;;;;;;;;;;;;;14.77;74.50;101127.53;5076952;28;19913;-79
2022/05/07 03:10:11;;;;;;;;;;;;;;;14.69;74.38;101122.09;5069013;28;19913;-79
2022/05/07 03:12:55;;;;;;;;;;;;;;;14.73;74.48;101126.56;5056918;28;19913;-80
2022/05/07 03:15:41;;;;;;;;;;;;;;;14.74;74.36;101121.91;5055537;28;19917;-79
2022/05/07 03:18:30;;;;;;;;;;;;;;;14.75;74.04;101123.50;5065634;28;19913;-80
2022/05/07 03:21:15;;;;;;;;;;;;;;;14.64;74.83;101116.81;5048776;28;19913;-79
2022/05/07 03:24:00;;;;;;;;;;;;;;;14.73;74.86;101117.59;5038206;28;19913;-79
2022/05/07 03:26:44;;;;;;;;;;;;;;;14.75;74.51;101118.84;5050623;28;20405;-79
2022/05/07 03:29:31;;;;;;;;;;;;;;;14.71;74.38;101111.63;5055693;28;19913;-80
2022/05/07 03:32:24;;;;;;;;;;;;;;;14.61;74.35;101114.75;5056498;28;19912;-79
2022/05/07 03:35:13;;;;;;;;;;;;;;;14.63;74.70;101124.22;5069855;28;19916;-79
2022/05/07 03:37:57;;;;;;;;;;;;;;;14.61;75.19;101114.75;5064483;28;20409;-79
2022/05/07 03:40:43;;;;;;;;;;;;;;;14.57;75.05;101122.84;5060490;28;19912;-80
2022/05/07 03:43:27;;;;;;;;;;;;;;;14.58;74.95;101118.94;5036312;28;19924;-79
2022/05/07 03:46:12;;;;;;;;;;;;;;;14.57;74.74;101119.31;5035184;28;20374;-79
2022/05/07 03:49:06;;;;;;;;;;;;;;;14.57;74.48;101122.03;5051642;28;19912;-79
2022/05/07 03:54:57;;;;;;;;;;;;;;;14.55;75.01;101125.09;5066664;28;19917;-79
2022/05/07 03:57:42;;;;;;;;;;;;;;;14.58;74.65;101123.66;5054299;28;19913;-80
2022/05/07 04:00:26;;;;;;;;;;;;;;;14.54;74.68;101123.50;5056349;28;19913;-79
2022/05/07 04:03:14;;;;;;;;;;;;;;;14.51;74.65;101116.75;5055883;28;19912;-78
2022/05/07 04:06:08;;;;;;;;;;;;;;;14.49;74.55;101115.47;5060924;28;20408;-79
2022/05/07 04:08:53;;;;;;;;;;;;;;;14.47;74.34;101123.22;5055584;28;19913;-79
2022/05/07 04:11:38;;;;;;;;;;;;;;;14.48;74.85;101125.63;5055343;28;19917;-79
2022/05/07 04:14:23;;;;;;;;;;;;;;;14.45;74.68;101126.28;5070412;28;19913;-79
2022/05/07 04:17:12;;;;;;;;;;;;;;;14.42;75.02;101126.97;5057579;28;19913;-79
2022/05/07 04:19:56;;;;;;;;;;;;;;;14.45;74.83;101130.97;5067497;28;19913;-79
2022/05/07 04:22:41;;;;;;;;;;;;;;;14.42;75.22;101124.22;5078127;28;20312;-79
2022/05/07 04:25:25;;;;;;;;;;;;;;;14.41;75.16;101119.88;5056375;28;20373;-80
2022/05/07 04:28:11;;;;;;;;;;;;;;;14.45;75.13;101122.75;5066316;28;19912;-78
2022/05/07 04:30:56;;;;;;;;;;;;;;;14.47;75.14;101126.78;5062283;28;20293;-80
2022/05/07 04:33:45;;;;;;;;;;;;;;;14.42;75.55;101123.44;5064032;28;19912;-79
2022/05/07 04:36:32;;;;;;;;;;;;;;;14.44;75.55;101124.69;5064026;28;20293;-80
2022/05/07 04:39:22;;;;;;;;;;;;;;;14.46;75.33;101125.16;5072420;28;19912;-81
2022/05/07 04:42:19;;;;;;;;;;;;;;;14.48;75.48;101130.28;5054637;28;19913;-80
2022/05/07 04:45:10;;;;;;;;;;;;;;;14.50;75.61;101131.56;5061773;28;19912;-80
2022/05/07 04:48:11;;;;;;;;;;;;;;;14.47;75.63;101124.03;5060432;28;20300;-79
2022/05/07 04:50:55;;;;;;;;;;;;;;;14.50;75.75;101134.31;5061293;28;19913;-78
2022/05/07 04:53:57;;;;;;;;;;;;;;;14.52;75.80;101134.78;5060384;28;19912;-79
2022/05/07 04:56:41;;;;;;;;;;;;;;;14.49;75.65;101137.38;5073470;28;19916;-78
2022/05/07 04:59:27;;;;;;;;;;;;;;;14.54;75.67;101134.44;5053275;28;19913;-79
2022/05/07 05:02:22;;;;;;;;;;;;;;;14.57;75.64;101141.19;5063180;28;20293;-79
2022/05/07 05:05:15;;;;;;;;;;;;;;;14.51;75.80;101141.41;5042699;28;19912;-79
2022/05/07 05:08:04;;;;;;;;;;;;;;;14.55;75.82;101145.06;5048023;28;19912;-78
2022/05/07 05:10:51;;;;;;;;;;;;;;;14.58;75.91;101140.06;5061103;28;19912;-79
2022/05/07 05:13:35;;;;;;;;;;;;;;;14.55;76.34;101139.59;5058659;28;19913;-78
2022/05/07 05:16:20;;;;;;;;;;;;;;;14.65;76.82;101143.06;5052344;28;19917;-78
2022/05/07 05:19:08;;;;;;;;;;;;;;;14.58;76.50;101148.28;5067330;28;19921;-78
2022/05/07 05:21:53;;;;;;;;;;;;;;;14.74;76.33;101141.06;5059465;28;19921;-78
2022/05/07 05:24:43;;;;;;;;;;;;;;;14.69;76.42;101149.47;5056829;28;19924;-78
2022/05/07 05:27:28;;;;;;;;;;;;;;;14.66;76.34;101150.16;5058398;28;19917;-78
2022/05/07 05:30:13;;;;;;;;;;;;;;;14.68;76.17;101151.41;5055149;28;19912;-78
2022/05/07 05:32:58;;;;;;;;;;;;;;;14.70;76.57;101153.81;5053567;28;19916;-78
2022/05/07 05:35:42;;;;;;;;;;;;;;;14.79;76.39;101154.56;5052928;28;19920;-79
2022/05/07 05:38:30;;;;;;;;;;;;;;;14.70;76.33;101160.09;5060633;28;20304;-79
2022/05/07 05:41:17;;;;;;;;;;;;;;;14.70;77.39;101160.09;5057484;28;19913;-79
2022/05/07 05:44:03;;;;;;;;;;;;;;;14.76;77.15;101157.97;5056998;28;19913;-79
2022/05/07 05:46:49;;;;;;;;;;;;;;;14.81;76.98;101161.31;5051123;28;19913;-80
2022/05/07 05:49:33;;;;;;;;;;;;;;;14.77;76.99;101160.41;5055149;28;20308;-79
2022/05/07 05:52:18;;;;;;;;;;;;;;;14.83;77.29;101164.50;5056630;28;19916;-79
2022/05/07 05:55:03;;;;;;;;;;;;;;;14.85;77.64;101162.25;5066857;28;19917;-79
2022/05/07 05:57:49;;;;;;;;;;;;;;;14.91;77.23;101163.66;5050575;28;19920;-85
2022/05/07 06:00:34;;;;;;;;;;;;;;;14.93;77.15;101161.38;5049190;28;19920;-78
2022/05/07 06:03:19;;;;;;;;;;;;;;;14.93;77.17;101166.88;5055214;28;20393;-78
2022/05/07 06:06:03;;;;;;;;;;;;;;;14.90;76.98;101162.06;5079500;28;19912;-79
2022/05/07 06:08:48;;;;;;;;;;;;;;;14.94;76.79;101164.94;5057433;28;19921;-79
2022/05/07 06:11:33;;;;;;;;;;;;;;;14.96;76.89;101170.88;5072404;28;19925;-78
2022/05/07 06:14:18;;;;;;;;;;;;;;;15.01;76.83;101173.44;5059254;28;19917;-80
2022/05/07 06:17:03;;;;;;;;;;;;;;;15.03;77.00;101168.44;5057274;28;19917;-79
2022/05/07 06:19:48;;;;;;;;;;;;;;;15.05;76.61;101170.81;5056166;28;19913;-79
2022/05/07 06:22:33;;;;;;;;;;;;;;;15.04;76.42;101177.41;5062087;28;19912;-80
2022/05/07 06:28:29;;;;;;;;;;;;;;;15.04;75.99;101178.22;5060704;28;19916;-80
2022/05/07 06:31:17;;;;;;;;;;;;;;;15.07;76.06;101180.31;5067112;28;19913;-80
2022/05/07 06:34:03;;;;;;;;;;;;;;;15.11;75.64;101175.75;5058983;28;19912;-78
2022/05/07 06:36:47;;;;;;;;;;;;;;;15.10;75.85;101179.63;5059145;28;20319;-80
2022/05/07 06:39:33;;;;;;;;;;;;;;;15.14;75.76;101185.25;5061605;28;19912;-79
2022/05/07 06:42:17;;;;;;;;;;;;;;;15.15;75.36;101187.66;5056516;28;19916;-79
2022/05/07 06:45:07;;;;;;;;;;;;;;;15.16;75.34;101181.03;5053173;28;19912;-79
2022/05/07 06:47:51;;;;;;;;;;;;;;;15.37;74.73;101190.06;5053437;28;19913;-80
2022/05/07 06:50:37;;;;;;;;;;;;;;;15.42;75.66;101178.09;5058072;28;19912;-80
2022/05/07 06:53:22;;;;;;;;;;;;;;;15.58;74.45;101184.59;5062366;28;19912;-80
2022/05/07 06:56:06;;;;;;;;;;;;;;;15.56;74.89;101191.53;5064842;28;19917;-80
2022/05/07 06:58:51;;;;;;;;;;;;;;;15.50;75.35;101190.09;5058097;28;20456;-84
2022/05/07 07:01:37;;;;;;;;;;;;;;;15.42;74.66;101197.28;5057894;28;19912;-80
2022/05/07 07:04:22;;;;;;;;;;;;;;;15.48;75.16;101192.38;5058049;28;20376;-80
2022/05/07 07:07:07;;;;;;;;;;;;;;;15.63;74.98;101194.53;5053850;28;20385;-80
2022/05/07 07:09:52;;;;;;;;;;;;;;;15.59;74.95;101196.34;5057736;28;19912;-80
2022/05/07 07:12:40;;;;;;;;;;;;;;;15.56;75.53;101197.00;5055401;28;19920;-80
2022/05/07 07:15:25;;;;;;;;;;;;;;;15.65;75.59;101194.97;5053708;28;19916;-80
2022/05/07 07:18:12;;;;;;;;;;;;;;;15.73;75.19;101194.13;5053825;28;20336;-80
2022/05/07 07:20:57;;;;;;;;;;;;;;;15.81;74.74;101194.00;5053046;28;19913;-80
2022/05/07 07:23:41;;;;;;;;;;;;;;;15.90;74.25;101191.16;5054749;28;19912;-80
2022/05/07 07:26:27;;;;;;;;;;;;;;;15.74;74.87;101182.00;5048280;28;20289;-80
2022/05/07 07:29:11;;;;;;;;;;;;;;;15.58;75.66;101189.25;5052623;28;19917;-81
2022/05/07 07:31:56;;;;;;;;;;;;;;;16.02;73.79;101193.94;5051844;28;19912;-81
2022/05/07 07:34:40;;;;;;;;;;;;;;;15.96;73.75;101191.75;5057353;28;19912;-80
2022/05/07 07:37:27;;;;;;;;;;;;;;;16.11;73.11;101197.38;5060180;28;19916;-81
2022/05/07 07:40:15;;;;;;;;;;;;;;;16.02;73.60;101202.19;5056565;28;20312;-80
2022/05/07 07:42:59;;;;;;;;;;;;;;;16.03;73.77;101205.72;5053872;28;19912;-81
2022/05/07 07:48:47;;;;;;;;;;;;;;;16.08;72.97;101195.34;5054454;28;20292;-83
2022/05/07 07:51:31;;;;;;;;;;;;;;;16.42;71.51;101205.09;5042089;28;19916;-80
2022/05/07 07:54:16;;;;;;;;;;;;;;;16.40;71.60;101201.91;5056033;28;19913;-81
2022/05/07 07:57:04;;;;;;;;;;;;;;;16.25;71.81;101202.56;5055293;28;19917;-83
2022/05/07 07:59:49;;;;;;;;;;;;;;;16.49;71.35;101204.53;5054507;28;19917;-80
2022/05/07 08:02:34;;;;;;;;;;;;;;;16.40;71.71;101209.34;5063727;28;20365;-81
2022/05/07 08:05:22;;;;;;;;;;;;;;;16.63;71.00;101199.53;5065096;28;19917;-84
2022/05/07 08:14:13;;;;;;;;;;;;;;;17.04;69.31;101210.22;5057150;28;19912;-82
2022/05/07 08:16:58;;;;;;;;;;;;;;;16.20;72.21;101211.81;5054655;28;19917;-81
2022/05/07 08:19:43;;;;;;;;;;;;;;;16.45;71.62;101212.66;5054851;28;20388;-80
2022/05/07 08:22:28;;;;;;;;;;;;;;;16.70;71.24;101213.50;5052268;28;19913;-80
2022/05/07 08:25:13;;;;;;;;;;;;;;;16.20;73.07;101213.78;5058566;28;19913;-80
2022/05/07 08:27:57;;;;;;;;;;;;;;;16.66;71.80;101218.03;5058339;28;19916;-79
2022/05/07 08:30:42;;;;;;;;;;;;;;;17.06;69.98;101213.44;5057845;28;19913;-79
2022/05/07 08:33:27;;;;;;;;;;;;;;;17.22;68.84;101218.22;5059885;28;19917;-79
2022/05/07 08:36:12;;;;;;;;;;;;;;;17.22;68.62;101212.72;5053739;28;19917;-79
2022/05/07 08:38:57;;;;;;;;;;;;;;;17.29;68.39;101218.41;5058170;28;19912;-79
2022/05/07 08:41:41;;;;;;;;;;;;;;;17.41;66.71;101215.63;5057653;28;19913;-79
2022/05/07 08:44:26;;;;;;;;;;;;;;;17.46;64.75;101213.44;5059230;28;19913;-79
2022/05/07 08:47:10;;;;;;;;;;;;;;;17.36;64.85;101213.94;5053947;28;19913;-79
2022/05/07 08:49:55;;;;;;;;;;;;;;;17.42;65.75;101209.75;5050363;28;19913;-79
2022/05/07 08:52:42;;;;;;;;;;;;;;;16.64;70.26;101220.34;5033411;28;19916;-79
2022/05/07 08:55:28;;;;;;;;;;;;;;;16.35;72.26;101220.53;5047173;28;19913;-79
2022/05/07 08:58:15;;;;;;;;;;;;;;;16.21;72.56;101218.09;5061322;28;19916;-79
2022/05/07 09:01:01;;;;;;;;;;;;;;;16.41;71.77;101216.41;5044016;28;19913;-79
2022/05/07 09:03:47;;;;;;;;;;;;;;;16.49;69.55;101218.25;5052879;28;19912;-79
2022/05/07 09:06:31;;;;;;;;;;;;;;;16.61;69.51;101215.53;5037917;28;19913;-79
2022/05/07 09:09:16;;;;;;;;;;;;;;;16.80;68.83;101218.50;5051080;28;19917;-79
2022/05/07 09:12:01;;;;;;;;;;;;;;;16.96;68.04;101219.41;5058407;28;19913;-79
2022/05/07 09:14:46;;;;;;;;;;;;;;;16.81;69.23;101216.56;5054690;28;19913;-80
2022/05/07 09:17:32;;;;;;;;;;;;;;;16.42;70.03;101216.06;5055895;28;19916;-79
2022/05/07 09:20:19;;;;;;;;;;;;;;;16.69;69.11;101217.38;5053995;28;19916;-88
2022/05/07 09:23:04;;;;;;;;;;;;;;;16.57;69.63;101217.31;5059396;28;20381;-81
2022/05/07 09:25:49;;;;;;;;;;;;;;;17.18;67.13;101211.78;5064673;28;20485;-81
2022/05/07 09:28:35;;;;;;;;;;;;;;;17.53;66.18;101210.88;5056456;28;19913;-80
2022/05/07 09:31:32;;;;;;;;;;;;;;;17.56;64.71;101206.63;5061052;28;19912;-80
2022/05/07 09:37:21;;;;;;;;;;;;;;;17.94;63.60;101217.13;5060233;28;20388;-81
2022/05/07 09:40:09;;;;;;;;;;;;;;;17.91;63.14;101212.34;5061673;28;19916;-82
2022/05/07 09:42:57;;;;;;;;;;;;;;;17.57;65.32;101212.94;5058073;28;19913;-82
2022/05/07 09:45:42;;;;;;;;;;;;;;;17.80;63.76;101214.81;5048077;28;20397;-81
2022/05/07 09:48:28;;;;;;;;;;;;;;;17.79;63.98;101210.44;5056170;28;19917;-81
2022/05/07 09:51:12;;;;;;;;;;;;;;;17.92;64.10;101220.25;5053917;28;19924;-81
2022/05/07 10:00:08;;;;;;;;;;;;;;;18.30;62.17;101208.66;5050159;28;19939;-82
2022/05/07 10:02:59;;;;;;;;;;;;;;;18.18;63.61;101207.94;5046852;28;19917;-80
2022/05/07 10:05:49;;;;;;;;;;;;;;;17.98;64.98;101209.00;5095572;22;19921;-82
2022/05/07 10:08:52;;;;;;;;;;;;;;;18.27;63.31;101203.88;5064347;28;19916;-79
2022/05/07 10:11:37;;;;;;;;;;;;;;;18.03;64.02;101203.22;5075162;28;19912;-80
2022/05/07 10:14:26;;;;;;;;;;;;;;;18.04;64.89;101204.81;5052139;28;19917;-81
2022/05/07 10:17:12;;;;;;;;;;;;;;;17.98;64.80;101200.75;5044817;28;20392;-79
2022/05/07 10:20:09;;;;;;;;;;;;;;;17.99;63.78;101205.06;5068300;28;20293;-79
2022/05/07 10:22:57;;;;;;;;;;;;;;;18.39;62.40;101206.50;5052484;28;19912;-79
2022/05/07 10:25:43;;;;;;;;;;;;;;;18.43;62.80;101200.31;5049458;28;19913;-83
2022/05/07 10:28:41;;;;;;;;;;;;;;;18.08;62.77;101201.00;5066988;28;19920;-81
2022/05/07 10:31:25;;;;;;;;;;;;;;;17.97;64.09;101199.13;5049906;28;19913;-80
2022/05/07 10:34:10;;;;;;;;;;;;;;;17.99;64.47;101197.59;5062839;28;19916;-82
2022/05/07 10:37:02;;;;;;;;;;;;;;;18.21;63.49;101190.72;5048641;28;19921;-82
2022/05/07 10:39:51;;;;;;;;;;;;;;;18.50;61.83;101184.75;5057866;28;19913;-80
2022/05/07 10:42:39;;;;;;;;;;;;;;;19.08;60.54;101179.41;5072543;28;19913;-81
2022/05/07 10:45:24;;;;;;;;;;;;;;;18.91;62.61;101183.34;5048735;28;19913;-80
2022/05/07 10:48:17;;;;;;;;;;;;;;;18.81;61.57;101181.16;5050435;28;19921;-78
2022/05/07 10:51:02;;;;;;;;;;;;;;;18.56;62.45;101180.59;5047537;28;19921;-79
2022/05/07 10:53:48;;;;;;;;;;;;;;;18.76;62.11;101173.97;5050059;28;19912;-80
2022/05/07 10:56:33;;;;;;;;;;;;;;;18.78;61.24;101174.44;5054054;28;19916;-78
2022/05/07 10:59:18;;;;;;;;;;;;;;;19.14;60.88;101170.50;5052392;28;19916;-79
2022/05/07 11:02:07;;;;;;;;;;;;;;;18.53;63.07;101164.75;5051646;28;19916;-78
2022/05/07 11:04:51;;;;;;;;;;;;;;;18.18;64.30;101166.66;5055712;28;20369;-80
2022/05/07 11:07:36;;;;;;;;;;;;;;;17.78;65.65;101159.31;5049988;28;19913;-80
2022/05/07 11:10:20;;;;;;;;;;;;;;;17.60;65.72;101157.25;5053716;28;19913;-79
2022/05/07 11:13:07;;;;;;;;;;;;;;;17.49;66.02;101156.94;5070969;28;20385;-79
2022/05/07 11:16:02;;;;;;;;;;;;;;;17.40;66.77;101153.53;5046315;28;19913;-80
2022/05/07 11:18:50;;;;;;;;;;;;;;;17.28;68.00;101151.63;5066350;28;20377;-78
2022/05/07 11:21:36;;;;;;;;;;;;;;;17.29;67.80;101153.25;5065402;28;19916;-80
2022/05/07 11:24:21;;;;;;;;;;;;;;;17.27;68.25;101150.03;5061393;28;19912;-81
2022/05/07 11:27:07;;;;;;;;;;;;;;;17.24;68.29;101144.44;5050314;28;19916;-80
2022/05/07 11:29:52;;;;;;;;;;;;;;;17.25;68.22;101146.84;5048997;28;19920;-79
2022/05/07 11:32:40;;;;;;;;;;;;;;;17.23;68.09;101143.63;5063403;28;19912;-80
2022/05/07 11:35:25;;;;;;;;;;;;;;;17.25;68.07;101148.78;5059013;28;19916;-80
2022/05/07 11:38:14;;;;;;;;;;;;;;;17.25;69.39;101143.28;5054729;28;19920;-79
2022/05/07 11:41:07;;;;;;;;;;;;;;;17.20;69.66;101138.84;5052363;28;19916;-80
2022/05/07 11:46:56;;;;;;;;;;;;;;;17.15;69.28;101130.06;5067739;28;19917;-80
2022/05/07 11:49:41;;;;;;;;;;;;;;;17.05;69.33;101129.41;5051415;28;19912;-80
2022/05/07 11:52:28;;;;;;;;;;;;;;;17.02;69.54;101121.84;5051601;28;19916;-79
2022/05/07 11:55:13;;;;;;;;;;;;;;;17.07;69.02;101121.59;5062951;28;19912;-80
2022/05/07 11:57:58;;;;;;;;;;;;;;;17.15;69.71;101124.56;5048445;28;20300;-80
2022/05/07 12:00:43;;;;;;;;;;;;;;;17.10;69.21;101126.41;5056648;28;19913;-80
2022/05/07 12:03:27;;;;;;;;;;;;;;;17.13;68.89;101116.66;5047180;28;19912;-81
2022/05/07 12:06:22;;;;;;;;;;;;;;;17.14;68.92;101120.19;5055553;28;20292;-80
2022/05/07 12:09:15;;;;;;;;;;;;;;;17.17;69.32;101114.03;5070733;28;19913;-81
2022/05/07 12:12:06;;;;;;;;;;;;;;;17.20;69.24;101118.81;5055175;28;20317;-80
2022/05/07 12:14:51;;;;;;;;;;;;;;;17.20;69.08;101111.38;5063776;28;19913;-80
2022/05/07 12:17:54;;;;;;;;;;;;;;;17.16;69.32;101109.66;5070941;28;19921;-79
2022/05/07 12:20:39;;;;;;;;;;;;;;;17.20;67.78;101105.88;5072368;28;19920;-79
2022/05/07 12:32:28;;;;;;;;;;;;;;;17.29;68.77;101101.00;5042835;28;19916;-79
2022/05/07 12:35:14;;;;;;;;;;;;;;;17.34;67.69;101097.22;5065127;28;19913;-78
2022/05/07 12:37:59;;;;;;;;;;;;;;;17.39;67.05;101096.94;5071091;28;19917;-80
2022/05/07 12:40:43;;;;;;;;;;;;;;;17.38;66.89;101095.34;5056231;28;19925;-81
2022/05/07 12:43:29;;;;;;;;;;;;;;;17.41;66.42;101097.41;5050126;28;19913;-81
2022/05/07 12:46:13;;;;;;;;;;;;;;;17.46;66.45;101086.16;5075731;28;19912;-81
2022/05/07 12:48:59;;;;;;;;;;;;;;;17.48;66.01;101089.34;5075679;28;20369;-80
2022/05/07 12:51:43;;;;;;;;;;;;;;;17.54;66.69;101085.19;5072335;28;20297;-83
2022/05/07 12:54:30;;;;;;;;;;;;;;;17.55;66.36;101084.03;5056361;28;19912;-80
2022/05/07 12:57:14;;;;;;;;;;;;;;;17.58;66.49;101077.81;5070177;28;19917;-81
2022/05/07 12:59:59;;;;;;;;;;;;;;;17.57;67.11;101076.25;5069731;28;19916;-80
2022/05/07 13:02:43;;;;;;;;;;;;;;;17.59;66.72;101076.69;5075491;28;20388;-82
2022/05/07 13:05:29;;;;;;;;;;;;;;;17.61;65.70;101071.66;5053748;28;19913;-81
2022/05/07 13:08:17;;;;;;;;;;;;;;;17.71;66.24;101070.31;5070272;28;19913;-81
2022/05/07 13:11:01;;;;;;;;;;;;;;;17.88;66.07;101068.00;5057074;28;19917;-81
2022/05/07 13:13:46;;;;;;;;;;;;;;;17.99;66.05;101075.72;5054556;28;19916;-83
2022/05/07 13:16:34;;;;;;;;;;;;;;;18.06;65.71;101059.38;5073631;28;19917;-81
2022/05/07 13:19:20;;;;;;;;;;;;;;;18.29;65.58;101063.88;5055670;28;20397;-83
2022/05/07 13:22:05;;;;;;;;;;;;;;;18.32;64.32;101063.16;5081368;28;19912;-80
2022/05/07 13:24:50;;;;;;;;;;;;;;;18.35;64.91;101067.94;5072404;28;20377;-81
2022/05/07 13:27:35;;;;;;;;;;;;;;;18.51;64.91;101059.66;5075664;28;20293;-81
2022/05/07 13:30:20;;;;;;;;;;;;;;;18.64;65.11;101063.13;5072648;28;19913;-82
2022/05/07 13:33:05;;;;;;;;;;;;;;;18.67;63.32;101060.44;5055777;28;19913;-81
2022/05/07 13:35:50;;;;;;;;;;;;;;;18.64;62.81;101047.34;5054714;28;19913;-81
2022/05/07 13:38:36;;;;;;;;;;;;;;;18.68;64.14;101052.97;5055685;28;19916;-82
2022/05/07 13:41:21;;;;;;;;;;;;;;;18.70;63.29;101047.88;5050401;28;19916;-81
2022/05/07 13:44:10;;;;;;;;;;;;;;;18.84;63.73;101042.69;5064132;28;19917;-82
2022/05/07 13:46:55;;;;;;;;;;;;;;;18.85;63.93;101040.69;5059640;28;20297;-82
2022/05/07 13:49:39;;;;;;;;;;;;;;;18.88;63.12;101039.97;5053771;28;20389;-83
2022/05/07 13:52:24;;;;;;;;;;;;;;;18.82;62.38;101028.44;5074790;28;19912;-83
2022/05/07 13:55:09;;;;;;;;;;;;;;;18.78;62.71;101030.34;5070796;28;19921;-84
2022/05/07 13:57:54;;;;;;;;;;;;;;;18.82;62.99;101022.94;5048413;28;19916;-84
2022/05/07 14:00:39;;;;;;;;;;;;;;;18.80;62.87;101023.28;5053758;28;19913;-82
2022/05/07 14:03:24;;;;;;;;;;;;;;;18.86;63.11;101023.00;5046247;28;19913;-83
2022/05/07 14:06:08;;;;;;;;;;;;;;;18.84;63.19;101023.38;5061776;28;19913;-83
2022/05/07 14:08:53;;;;;;;;;;;;;;;18.85;63.19;101024.16;5055079;28;20503;-82
2022/05/07 14:11:37;;;;;;;;;;;;;;;18.79;62.38;101016.19;5035638;28;20289;-83
2022/05/07 14:14:22;;;;;;;;;;;;;;;18.85;63.63;101013.94;5073442;28;19913;-83
2022/05/07 14:17:08;;;;;;;;;;;;;;;18.84;63.11;101014.31;5057428;28;19920;-83
2022/05/07 14:19:54;;;;;;;;;;;;;;;18.96;63.87;101003.13;5075977;28;19913;-83
2022/05/07 14:22:39;;;;;;;;;;;;;;;19.01;63.47;101000.88;5054898;28;19920;-82
2022/05/07 14:25:24;;;;;;;;;;;;;;;19.04;63.94;100996.59;5045647;28;19921;-83
2022/05/07 14:28:09;;;;;;;;;;;;;;;19.06;63.20;101000.56;5048588;28;19921;-82
2022/05/07 14:30:56;;;;;;;;;;;;;;;19.01;63.39;100994.56;5061660;28;19916;-82
2022/05/07 14:33:45;;;;;;;;;;;;;;;18.98;63.36;100998.06;5059322;28;19921;-82
2022/05/07 14:36:31;;;;;;;;;;;;;;;19.01;61.19;100995.34;5060059;28;19916;-84
2022/05/07 14:39:15;;;;;;;;;;;;;;;18.98;58.57;100990.59;5055273;28;19913;-83
2022/05/07 14:42:00;;;;;;;;;;;;;;;18.91;54.60;100995.16;5058972;28;19916;-82
2022/05/07 14:44:44;;;;;;;;;;;;;;;18.95;52.33;100991.28;5069955;28;19912;-83
2022/05/07 14:47:29;;;;;;;;;;;;;;;18.93;51.82;100992.84;5060221;28;19913;-82
2022/05/07 14:50:14;;;;;;;;;;;;;;;18.93;52.43;100987.31;5066922;28;19912;-82
2022/05/07 14:52:58;;;;;;;;;;;;;;;18.98;53.91;100996.09;5069725;28;19912;-81
2022/05/07 14:55:43;;;;;;;;;;;;;;;18.97;53.29;100982.66;5063064;28;19913;-83